createdAt,value
2022-10-06T00:00:01.089Z,8.88
2022-10-06T00:02:28.221Z,9.52
2022-10-06T00:04:58.075Z,9.45
2022-10-06T00:07:26.798Z,9.65
2022-10-06T00:09:55.972Z,9.93
2022-10-06T00:12:22.676Z,9.75
2022-10-06T00:14:51.689Z,10.07
2022-10-06T00:17:20.556Z,9.82
2022-10-06T00:19:47.248Z,10.02
2022-10-06T00:22:13.950Z,10.40
2022-10-06T00:24:42.956Z,10.18
2022-10-06T00:27:11.950Z,9.90
2022-10-06T00:29:42.401Z,9.90
2022-10-06T00:32:10.090Z,9.85
2022-10-06T00:34:41.664Z,9.52
2022-10-06T00:37:10.793Z,9.07
2022-10-06T00:39:37.776Z,8.63
2022-10-06T00:42:04.689Z,8.70
2022-10-06T00:44:35.575Z,9.32
2022-10-06T00:47:04.739Z,8.70
2022-10-06T00:49:38.220Z,8.98
2022-10-06T00:52:12.674Z,8.88
2022-10-06T00:54:39.739Z,9.60
2022-10-06T00:57:09.721Z,8.30
2022-10-06T00:59:37.774Z,8.70
2022-10-06T01:02:23.287Z,8.45
2022-10-06T01:04:55.798Z,9.35
2022-10-06T01:07:26.529Z,9.07
2022-10-06T01:09:56.318Z,8.43
2022-10-06T01:12:23.267Z,7.80
2022-10-06T01:14:50.070Z,9.20
2022-10-06T01:17:43.149Z,8.50
2022-10-06T01:20:15.862Z,8.93
2022-10-06T01:22:48.219Z,9.05
2022-10-06T01:25:18.517Z,8.52
2022-10-06T01:27:53.650Z,8.65
2022-10-06T01:30:31.658Z,8.80
2022-10-06T01:33:03.251Z,9.50
2022-10-06T01:35:30.864Z,9.75
2022-10-06T01:40:30.577Z,9.02
2022-10-06T01:43:05.400Z,8.35
2022-10-06T01:45:32.156Z,9.27
2022-10-06T01:47:59.043Z,9.00
2022-10-06T01:50:26.179Z,8.27
2022-10-06T01:52:57.446Z,8.85
2022-10-06T01:55:25.434Z,8.60
2022-10-06T01:57:52.839Z,8.45
2022-10-06T02:00:26.773Z,7.90
2022-10-06T02:02:53.705Z,9.43
2022-10-06T02:05:23.153Z,7.78
2022-10-06T02:07:52.273Z,7.85
2022-10-06T02:10:19.420Z,8.32
2022-10-06T02:12:53.165Z,9.15
2022-10-06T02:15:21.791Z,8.45
2022-10-06T02:17:51.009Z,8.98
2022-10-06T02:20:22.554Z,8.88
2022-10-06T02:22:49.937Z,8.98
2022-10-06T02:25:21.163Z,7.97
2022-10-06T02:27:53.408Z,7.93
2022-10-06T02:30:22.895Z,8.55
2022-10-06T02:32:49.996Z,8.40
2022-10-06T02:35:19.828Z,8.10
2022-10-06T02:37:48.853Z,8.68
2022-10-06T02:40:18.484Z,8.45
2022-10-06T02:42:45.799Z,8.18
2022-10-06T02:45:16.648Z,7.20
2022-10-06T02:47:44.028Z,8.38
2022-10-06T02:50:11.334Z,8.07
2022-10-06T02:52:41.047Z,7.85
2022-10-06T02:55:11.106Z,8.30
2022-10-06T02:57:38.092Z,8.50
2022-10-06T03:00:07.384Z,9.15
2022-10-06T03:05:03.618Z,9.52
2022-10-06T03:07:30.293Z,9.52
2022-10-06T03:09:59.806Z,10.32
2022-10-06T03:12:30.023Z,9.82
2022-10-06T03:17:23.399Z,10.65
2022-10-06T03:19:56.963Z,10.57
2022-10-06T03:22:24.443Z,9.88
2022-10-06T03:24:54.301Z,10.35
2022-10-06T03:27:21.569Z,11.13
2022-10-06T03:29:49.341Z,10.15
2022-10-06T03:32:16.721Z,10.18
2022-10-06T03:34:43.983Z,10.20
2022-10-06T03:37:13.793Z,10.90
2022-10-06T03:39:43.047Z,11.02
2022-10-06T03:42:11.246Z,10.20
2022-10-06T03:44:38.064Z,11.05
2022-10-06T03:47:07.914Z,9.85
2022-10-06T03:49:36.092Z,8.68
2022-10-06T03:52:02.795Z,9.90
2022-10-06T03:54:38.500Z,9.73
2022-10-06T03:57:07.340Z,8.68
2022-10-06T03:59:34.303Z,7.72
2022-10-06T04:02:05.414Z,8.35
2022-10-06T04:04:38.275Z,7.85
2022-10-06T04:07:09.350Z,8.93
2022-10-06T04:09:39.891Z,8.23
2022-10-06T04:12:08.787Z,9.10
2022-10-06T04:14:45.862Z,10.15
2022-10-06T04:17:20.870Z,8.20
2022-10-06T04:19:49.806Z,7.85
2022-10-06T04:22:16.728Z,8.23
2022-10-06T04:24:43.570Z,7.68
2022-10-06T04:27:33.048Z,8.02
2022-10-06T04:30:03.701Z,7.57
2022-10-06T04:32:33.909Z,7.68
2022-10-06T04:35:00.878Z,9.20
2022-10-06T04:37:30.195Z,7.95
2022-10-06T04:40:02.101Z,7.25
2022-10-06T04:42:45.995Z,7.53
2022-10-06T04:45:21.953Z,7.85
2022-10-06T04:47:57.004Z,7.15
2022-10-06T04:50:32.983Z,8.05
2022-10-06T04:53:11.568Z,7.47
2022-10-06T04:55:38.872Z,7.43
2022-10-06T04:58:08.135Z,8.27
2022-10-06T05:00:37.376Z,7.30
2022-10-06T05:03:38.524Z,8.25
2022-10-06T05:06:24.320Z,6.65
2022-10-06T05:08:56.838Z,7.40
2022-10-06T05:11:25.965Z,7.22
2022-10-06T05:13:54.989Z,7.35
2022-10-06T05:16:23.832Z,7.28
2022-10-06T05:18:50.653Z,8.23
2022-10-06T05:21:23.270Z,7.60
2022-10-06T05:23:50.376Z,7.40
2022-10-06T05:26:23.756Z,7.50
2022-10-06T05:28:50.983Z,6.95
2022-10-06T05:31:29.190Z,7.28
2022-10-06T05:33:57.248Z,7.57
2022-10-06T05:36:31.393Z,6.97
2022-10-06T05:39:00.597Z,7.65
2022-10-06T05:41:34.136Z,7.30
2022-10-06T05:44:06.891Z,8.07
2022-10-06T05:46:35.419Z,7.50
2022-10-06T05:51:35.188Z,7.28
2022-10-06T05:54:06.587Z,8.05
2022-10-06T05:56:35.230Z,7.82
2022-10-06T05:59:05.201Z,8.05
2022-10-06T06:01:42.789Z,7.80
2022-10-06T06:04:26.771Z,8.35
2022-10-06T06:06:56.043Z,8.50
2022-10-06T06:09:26.381Z,8.23
2022-10-06T06:11:55.535Z,8.60
2022-10-06T06:14:45.023Z,8.68
2022-10-06T06:17:16.891Z,8.77
2022-10-06T06:19:45.896Z,7.80
2022-10-06T06:22:12.637Z,7.75
2022-10-06T06:24:44.352Z,9.75
2022-10-06T06:27:11.434Z,9.23
2022-10-06T06:29:40.146Z,8.63
2022-10-06T06:32:11.807Z,8.70
2022-10-06T06:34:38.634Z,8.15
2022-10-06T06:37:14.984Z,8.63
2022-10-06T06:39:47.602Z,8.55
2022-10-06T06:42:14.486Z,8.15
2022-10-06T06:44:47.614Z,7.38
2022-10-06T06:47:27.660Z,8.00
2022-10-06T06:50:00.304Z,8.77
2022-10-06T06:52:31.130Z,9.50
2022-10-06T06:55:02.044Z,8.90
2022-10-06T06:57:35.050Z,8.40
2022-10-06T07:00:07.879Z,9.05
2022-10-06T07:02:35.661Z,8.95
2022-10-06T07:05:08.095Z,8.60
2022-10-06T07:07:37.787Z,8.82
2022-10-06T07:10:04.737Z,9.55
2022-10-06T07:12:34.205Z,9.52
2022-10-06T07:15:19.382Z,9.25
2022-10-06T07:18:09.218Z,8.80
2022-10-06T07:20:54.966Z,9.50
2022-10-06T07:23:41.256Z,10.07
2022-10-06T07:26:17.526Z,10.30
2022-10-06T07:28:45.087Z,9.05
2022-10-06T07:33:44.500Z,10.05
2022-10-06T07:36:11.260Z,8.55
2022-10-06T07:38:41.621Z,9.88
2022-10-06T07:41:19.696Z,10.48
2022-10-06T07:43:59.331Z,11.02
2022-10-06T07:46:29.012Z,10.90
2022-10-06T07:49:02.378Z,11.25
2022-10-06T07:51:30.212Z,11.63
2022-10-06T07:53:58.348Z,10.85
2022-10-06T07:56:45.894Z,11.45
2022-10-06T08:01:44.601Z,11.60
2022-10-06T08:04:12.033Z,11.02
2022-10-06T08:06:42.230Z,11.98
2022-10-06T08:09:08.967Z,10.98
2022-10-06T08:11:35.780Z,12.10
2022-10-06T08:14:04.658Z,12.52
2022-10-06T08:16:31.422Z,11.27
2022-10-06T08:18:59.432Z,10.65
2022-10-06T08:21:31.521Z,10.85
2022-10-06T08:23:58.839Z,11.13
2022-10-06T08:26:30.105Z,11.02
2022-10-06T08:29:00.356Z,10.70
2022-10-06T08:31:27.903Z,11.75
2022-10-06T08:33:58.183Z,11.05
2022-10-06T08:36:30.963Z,12.13
2022-10-06T08:39:01.400Z,13.35
2022-10-06T08:41:48.660Z,13.55
2022-10-06T08:44:16.614Z,15.07
2022-10-06T08:46:50.632Z,13.25
2022-10-06T08:49:22.643Z,14.25
2022-10-06T08:51:52.169Z,12.60
2022-10-06T08:54:29.894Z,12.70
2022-10-06T08:56:59.756Z,14.10
2022-10-06T08:59:31.324Z,12.60
2022-10-06T09:04:36.390Z,13.48
2022-10-06T09:07:29.993Z,13.30
2022-10-06T09:10:16.367Z,14.07
2022-10-06T09:12:46.813Z,11.98
2022-10-06T09:15:16.580Z,12.77
2022-10-06T09:17:54.311Z,12.32
2022-10-06T09:20:33.139Z,14.05
2022-10-06T09:23:00.722Z,12.13
2022-10-06T09:25:28.818Z,13.63
2022-10-06T09:27:59.727Z,12.70
2022-10-06T09:30:27.698Z,12.43
2022-10-06T09:33:01.139Z,12.18
2022-10-06T09:35:31.182Z,13.20
2022-10-06T09:38:08.675Z,12.00
2022-10-06T09:40:50.309Z,12.23
2022-10-06T09:43:31.488Z,13.18
2022-10-06T09:46:20.602Z,12.20
2022-10-06T09:51:18.379Z,12.57
2022-10-06T09:54:10.436Z,11.57
2022-10-06T09:56:45.061Z,11.80
2022-10-06T09:59:30.484Z,10.65
2022-10-06T10:02:00.143Z,11.70
2022-10-06T10:04:32.354Z,11.30
2022-10-06T10:07:25.112Z,11.82
2022-10-06T10:10:12.760Z,12.45
2022-10-06T10:12:52.757Z,11.05
2022-10-06T10:15:31.425Z,11.70
2022-10-06T10:18:01.417Z,11.90
2022-10-06T10:20:34.198Z,12.38
2022-10-06T10:23:07.262Z,13.60
2022-10-06T10:25:59.807Z,14.73
2022-10-06T10:28:44.489Z,16.15
2022-10-06T10:31:44.376Z,14.43
2022-10-06T10:34:23.991Z,13.65
2022-10-06T10:37:05.529Z,14.27
2022-10-06T10:39:43.791Z,12.57
2022-10-06T10:42:19.149Z,13.07
2022-10-06T10:44:55.451Z,11.07
2022-10-06T10:47:29.662Z,10.32
2022-10-06T10:50:11.598Z,9.68
2022-10-06T10:52:45.949Z,8.63
2022-10-06T10:55:27.208Z,8.32
2022-10-06T10:58:00.116Z,8.35
2022-10-06T11:00:29.163Z,6.97
2022-10-06T11:05:35.654Z,6.47
2022-10-06T11:08:16.806Z,7.72
2022-10-06T11:10:52.922Z,6.30
2022-10-06T11:13:34.227Z,6.53
2022-10-06T11:16:06.314Z,7.50
2022-10-06T11:18:35.423Z,6.03
2022-10-06T11:21:40.529Z,7.10
2022-10-06T11:24:29.179Z,7.60
2022-10-06T11:27:01.185Z,6.50
2022-10-06T11:29:35.155Z,7.30
2022-10-06T11:32:08.217Z,7.32
2022-10-06T11:34:34.928Z,7.10
2022-10-06T11:37:18.205Z,8.18
2022-10-06T11:40:06.699Z,6.72
2022-10-06T11:42:49.307Z,6.55
2022-10-06T11:45:18.207Z,6.97
2022-10-06T11:50:41.861Z,6.40
2022-10-06T11:53:38.560Z,6.38
2022-10-06T11:56:17.337Z,5.85
2022-10-06T11:59:12.061Z,6.10
2022-10-06T12:01:43.894Z,6.05
2022-10-06T12:04:10.587Z,6.32
2022-10-06T12:06:41.933Z,5.95
2022-10-06T12:09:34.988Z,6.78
2022-10-06T12:12:19.656Z,6.35
2022-10-06T12:17:09.490Z,5.22
2022-10-06T12:18:21.600Z,5.90
2022-10-06T12:21:19.348Z,5.75
2022-10-06T12:24:18.558Z,5.00
2022-10-06T12:27:27.206Z,5.15
2022-10-06T12:32:48.631Z,5.00
2022-10-06T12:35:47.746Z,4.43
2022-10-06T12:38:41.479Z,4.32
2022-10-06T12:41:17.091Z,4.45
2022-10-06T12:43:56.924Z,4.47
2022-10-06T12:46:35.333Z,5.43
2022-10-06T12:49:07.064Z,4.32
2022-10-06T12:51:40.388Z,4.55
2022-10-06T12:54:32.819Z,3.90
2022-10-06T12:57:16.992Z,5.22
2022-10-06T12:59:43.885Z,4.40
2022-10-06T13:02:19.669Z,3.45
2022-10-06T13:05:00.274Z,4.47
2022-10-06T13:07:29.748Z,4.65
2022-10-06T13:10:14.668Z,3.47
2022-10-06T13:12:46.638Z,3.90
2022-10-06T13:15:19.583Z,4.00
2022-10-06T13:17:57.145Z,4.18
2022-10-06T13:20:42.012Z,3.67
2022-10-06T13:23:12.414Z,4.50
2022-10-06T13:25:44.039Z,4.18
2022-10-06T13:28:26.138Z,4.85
2022-10-06T13:31:03.299Z,4.63
2022-10-06T13:33:36.968Z,4.25
2022-10-06T13:36:03.988Z,3.97
2022-10-06T13:38:35.350Z,3.63
2022-10-06T13:41:06.492Z,3.60
2022-10-06T13:43:43.573Z,3.65
2022-10-06T13:46:15.716Z,3.50
2022-10-06T13:48:56.094Z,3.53
2022-10-06T13:51:25.753Z,2.92
2022-10-06T13:53:52.730Z,3.28
2022-10-06T13:56:38.926Z,2.75
2022-10-06T13:59:41.129Z,2.97
2022-10-06T14:02:19.832Z,3.70
2022-10-06T14:05:21.809Z,3.05
2022-10-06T14:07:49.517Z,3.55
2022-10-06T14:10:23.087Z,2.43
2022-10-06T14:12:52.764Z,2.78
2022-10-06T14:15:27.377Z,2.30
2022-10-06T14:18:04.578Z,2.88
2022-10-06T14:20:37.881Z,3.40
2022-10-06T14:23:41.702Z,3.35
2022-10-06T14:26:12.993Z,3.42
2022-10-06T14:28:41.050Z,3.20
2022-10-06T14:31:14.113Z,3.95
2022-10-06T14:33:45.976Z,3.58
2022-10-06T14:36:18.311Z,3.40
2022-10-06T14:38:47.158Z,2.83
2022-10-06T14:41:18.870Z,3.28
2022-10-06T14:43:51.744Z,3.42
2022-10-06T14:46:18.491Z,3.97
2022-10-06T14:48:45.162Z,4.43
2022-10-06T14:51:11.957Z,3.65
2022-10-06T14:53:40.965Z,3.78
2022-10-06T14:56:10.739Z,9.52
2022-10-06T14:58:44.276Z,4.10
2022-10-06T15:01:14.539Z,3.67
2022-10-06T15:03:49.089Z,4.05
2022-10-06T15:06:34.585Z,4.00
2022-10-06T15:09:01.612Z,3.17
2022-10-06T15:11:32.991Z,2.65
2022-10-06T15:13:59.844Z,2.15
2022-10-06T15:16:30.012Z,2.45
2022-10-06T15:18:59.109Z,2.20
2022-10-06T15:21:26.680Z,2.60
2022-10-06T15:24:00.745Z,2.20
2022-10-06T15:26:45.964Z,2.35
2022-10-06T15:29:13.426Z,2.50
2022-10-06T15:31:42.213Z,2.53
2022-10-06T15:34:12.332Z,2.60
2022-10-06T15:36:41.122Z,2.63
2022-10-06T15:39:11.598Z,2.55
2022-10-06T15:41:42.980Z,2.45
2022-10-06T15:44:10.868Z,2.90
2022-10-06T15:46:39.928Z,2.90
2022-10-06T15:49:12.186Z,3.17
2022-10-06T15:51:45.091Z,3.22
2022-10-06T15:54:14.544Z,3.03
2022-10-06T15:56:43.529Z,2.97
2022-10-06T15:59:12.424Z,3.80
2022-10-06T16:04:33.026Z,3.33
2022-10-06T16:07:00.324Z,3.28
2022-10-06T16:09:29.414Z,3.10
2022-10-06T16:14:27.020Z,2.85
2022-10-06T16:16:54.154Z,3.45
2022-10-06T16:19:23.899Z,3.38
2022-10-06T16:21:58.615Z,3.72
2022-10-06T16:24:26.101Z,3.30
2022-10-06T16:26:53.728Z,3.55
2022-10-06T16:29:21.706Z,4.20
2022-10-06T16:31:48.946Z,4.03
2022-10-06T16:34:18.872Z,3.58
2022-10-06T16:36:45.985Z,3.42
2022-10-06T16:41:47.207Z,4.75
2022-10-06T16:44:14.255Z,6.10
2022-10-06T16:46:41.097Z,4.30
2022-10-06T16:49:10.501Z,5.97
2022-10-06T16:51:48.302Z,6.60
2022-10-06T16:54:17.454Z,13.65
2022-10-06T16:56:48.928Z,5.50
2022-10-06T16:59:20.923Z,5.28
2022-10-06T17:01:48.976Z,4.97
2022-10-06T17:04:18.339Z,4.63
2022-10-06T17:06:46.800Z,7.65
2022-10-06T17:09:15.214Z,5.85
2022-10-06T17:11:56.342Z,11.30
2022-10-06T17:14:23.832Z,5.10
2022-10-06T17:16:52.334Z,4.57
2022-10-06T17:19:21.521Z,5.55
2022-10-06T17:21:51.545Z,5.95
2022-10-06T17:24:22.551Z,5.50
2022-10-06T17:26:53.024Z,5.10
2022-10-06T17:29:21.757Z,4.57
2022-10-06T17:31:56.356Z,5.22
2022-10-06T17:34:26.421Z,5.43
2022-10-06T17:36:56.879Z,6.43
2022-10-06T17:39:24.613Z,5.47
2022-10-06T17:41:52.779Z,5.57
2022-10-06T17:44:26.977Z,6.07
2022-10-06T17:47:00.747Z,6.28
2022-10-06T17:49:34.710Z,5.68
2022-10-06T17:52:05.830Z,6.13
2022-10-06T17:54:33.857Z,5.05
2022-10-06T17:57:00.675Z,4.85
2022-10-06T17:59:30.535Z,6.57
2022-10-06T18:02:02.616Z,5.32
2022-10-06T18:04:29.650Z,4.53
2022-10-06T18:06:57.115Z,5.97
2022-10-06T18:09:24.426Z,5.45
2022-10-06T18:11:56.268Z,6.50
2022-10-06T18:14:26.359Z,5.60
2022-10-06T18:16:56.734Z,6.00
2022-10-06T18:19:30.568Z,5.65
2022-10-06T18:22:10.290Z,6.70
2022-10-06T18:24:37.439Z,5.40
2022-10-06T18:27:06.322Z,5.78
2022-10-06T18:29:35.001Z,6.28
2022-10-06T18:32:51.102Z,6.35
2022-10-06T18:37:41.264Z,7.78
2022-10-06T18:40:11.189Z,7.32
2022-10-06T18:42:39.307Z,6.50
2022-10-06T18:45:26.132Z,6.68
2022-10-06T18:48:11.269Z,6.63
2022-10-06T18:50:37.918Z,7.40
2022-10-06T18:53:04.675Z,6.70
2022-10-06T18:55:31.913Z,6.75
2022-10-06T18:57:58.847Z,6.88
2022-10-06T19:00:26.094Z,6.88
2022-10-06T19:02:56.807Z,5.63
2022-10-06T19:05:23.944Z,6.07
2022-10-06T19:07:52.932Z,5.78
2022-10-06T19:10:22.347Z,6.82
2022-10-06T19:12:51.344Z,5.75
2022-10-06T19:15:20.985Z,7.63
2022-10-06T19:17:49.264Z,6.72
2022-10-06T19:20:23.356Z,6.88
2022-10-06T19:22:55.306Z,6.43
2022-10-06T19:25:23.933Z,8.07
2022-10-06T19:27:51.185Z,7.23
2022-10-06T19:30:18.455Z,9.43
2022-10-06T19:32:45.196Z,8.00
2022-10-06T19:35:14.095Z,7.82
2022-10-06T19:37:41.105Z,6.93
2022-10-06T19:40:11.489Z,7.68
2022-10-06T19:42:47.365Z,7.65
2022-10-06T19:45:16.103Z,8.27
2022-10-06T19:47:43.097Z,7.45
2022-10-06T19:50:14.934Z,7.78
2022-10-06T19:52:42.288Z,6.22
2022-10-06T19:55:11.887Z,7.90
2022-10-06T19:57:38.626Z,5.97
2022-10-06T20:00:06.639Z,7.22
2022-10-06T20:02:42.491Z,8.05
2022-10-06T20:05:11.633Z,8.13
2022-10-06T20:07:40.879Z,7.47
2022-10-06T20:10:11.911Z,7.85
2022-10-06T20:12:42.506Z,7.63
2022-10-06T20:15:10.386Z,6.78
2022-10-06T20:17:43.171Z,7.03
2022-10-06T20:20:10.167Z,7.03
2022-10-06T20:22:42.730Z,8.55
2022-10-06T20:25:09.522Z,7.05
2022-10-06T20:27:38.675Z,8.52
2022-10-06T20:32:34.827Z,9.68
2022-10-06T20:35:04.849Z,7.70
2022-10-06T20:37:31.569Z,8.30
2022-10-06T20:40:16.908Z,7.88
2022-10-06T20:42:48.578Z,9.15
2022-10-06T20:45:15.323Z,9.77
2022-10-06T20:47:42.328Z,9.07
2022-10-06T20:50:11.590Z,9.85
2022-10-06T20:52:40.880Z,8.52
2022-10-06T20:57:36.870Z,8.98
2022-10-06T21:00:04.090Z,9.52
2022-10-06T21:02:35.553Z,9.35
2022-10-06T21:05:08.968Z,9.38
2022-10-06T21:07:35.659Z,9.30
2022-10-06T21:10:02.300Z,9.55
2022-10-06T21:12:32.273Z,10.52
2022-10-06T21:14:59.359Z,9.32
2022-10-06T21:17:26.002Z,9.70
2022-10-06T21:19:54.940Z,10.20
2022-10-06T21:22:22.301Z,10.70
2022-10-06T21:24:51.613Z,10.52
2022-10-06T21:27:21.152Z,10.30
2022-10-06T21:29:50.066Z,9.30
2022-10-06T21:32:19.661Z,10.02
2022-10-06T21:34:48.710Z,9.50
2022-10-06T21:37:15.372Z,9.98
2022-10-06T21:39:42.156Z,10.98
2022-10-06T21:42:11.285Z,10.75
2022-10-06T21:44:40.371Z,10.05
2022-10-06T21:47:12.373Z,10.38
2022-10-06T21:49:41.266Z,10.48
2022-10-06T21:52:08.876Z,10.30
2022-10-06T21:54:35.655Z,9.98
2022-10-06T21:57:02.398Z,9.90
2022-10-06T21:59:29.138Z,10.18
2022-10-06T22:01:58.267Z,10.35
2022-10-06T22:04:25.235Z,10.25
2022-10-06T22:06:52.152Z,10.20
2022-10-06T22:09:19.624Z,10.13
2022-10-06T22:11:48.756Z,9.88
2022-10-06T22:14:17.389Z,10.15
2022-10-06T22:16:44.807Z,9.45
2022-10-06T22:19:13.312Z,14.07
2022-10-06T22:21:44.936Z,10.90
2022-10-06T22:24:16.670Z,10.65
2022-10-06T22:26:43.956Z,9.98
2022-10-06T22:29:13.148Z,9.63
2022-10-06T22:31:43.991Z,11.50
2022-10-06T22:34:12.924Z,10.05
2022-10-06T22:36:44.602Z,10.23
2022-10-06T22:39:13.460Z,9.85
2022-10-06T22:41:40.400Z,10.13
2022-10-06T22:44:07.203Z,9.55
2022-10-06T22:46:35.876Z,9.73
2022-10-06T22:49:06.781Z,10.05
2022-10-06T22:51:35.759Z,10.73
2022-10-06T22:54:03.367Z,9.80
2022-10-06T22:56:32.057Z,9.93
2022-10-06T22:59:02.058Z,9.93
2022-10-06T23:01:32.990Z,9.88
2022-10-06T23:03:59.761Z,9.10
2022-10-06T23:06:26.711Z,10.88
2022-10-06T23:08:56.427Z,9.32
2022-10-06T23:11:25.462Z,9.65
2022-10-06T23:13:53.166Z,9.20
2022-10-06T23:16:22.810Z,9.15
2022-10-06T23:18:49.881Z,9.18
2022-10-06T23:21:22.202Z,10.05
2022-10-06T23:23:51.071Z,8.82
2022-10-06T23:26:21.596Z,10.23
2022-10-06T23:28:57.327Z,9.38
2022-10-06T23:31:24.583Z,10.75
2022-10-06T23:33:51.600Z,9.60
2022-10-06T23:36:20.442Z,9.35
2022-10-06T23:38:51.702Z,8.82
2022-10-06T23:41:19.137Z,9.55
2022-10-06T23:43:45.913Z,9.18
2022-10-06T23:46:17.631Z,9.23
2022-10-06T23:48:46.681Z,9.57
2022-10-06T23:51:15.398Z,9.40
2022-10-06T23:53:45.014Z,8.98
2022-10-06T23:56:12.052Z,9.75
2022-10-06T23:58:46.043Z,9.00
